Time;durP1;ratioP1;P1;durP2;ratioP2;P2;SDS_P1;SDS_P2;PMS_P1;PMS_P2;Temp;Humidity;BMP_temperature;BMP_pressure;BME280_temperature;BME280_humidity;BME280_pressure;Samples;Min_cycle;Max_cycle;Signal;HPM_P1;HPM_P2
2021/12/11 13:15:46;;;;;;;78.28;35.33;;;6.30;99.90;;;;;;5024969;28;1416730;-92
2021/12/11 13:18:19;;;;;;;76.50;35.13;;;6.30;99.90;;;;;;5078231;28;20491;-93
2021/12/11 13:20:52;;;;;;;78.75;33.42;;;6.40;99.90;;;;;;5076859;28;20049;-91
2021/12/11 13:23:19;;;;;;;62.33;31.67;;;6.30;99.90;;;;;;5078133;28;20020;-93
2021/12/11 13:25:50;;;;;;;56.70;29.77;;;6.30;99.90;;;;;;5061241;28;20025;-92
2021/12/11 13:28:20;;;;;;;51.75;28.48;;;6.20;99.90;;;;;;5077355;28;20017;-94
2021/12/11 13:30:54;;;;;;;52.65;25.40;;;6.20;99.90;;;;;;5082592;28;20116;-93
2021/12/11 13:33:23;;;;;;;47.65;23.58;;;6.20;99.90;;;;;;5083246;28;20032;-93
2021/12/11 13:35:52;;;;;;;50.08;24.50;;;6.10;99.90;;;;;;5079825;28;20025;-93
2021/12/11 13:38:21;;;;;;;48.35;23.55;;;6.20;99.90;;;;;;5077893;28;20088;-94
2021/12/11 13:40:52;;;;;;;45.78;24.15;;;6.10;99.90;;;;;;5069471;28;20032;-94
2021/12/11 13:43:24;;;;;;;51.97;24.35;;;6.10;99.90;;;;;;5079015;28;20020;-95
2021/12/11 13:45:53;;;;;;;50.22;25.55;;;6.20;99.90;;;;;;5077287;28;20024;-94
2021/12/11 13:48:21;;;;;;;51.38;24.58;;;6.10;99.90;;;;;;5078240;28;20017;-92
2021/12/11 13:50:55;;;;;;;51.17;24.88;;;6.10;99.90;;;;;;5080020;28;20440;-93
2021/12/11 13:53:23;;;;;;;55.92;25.70;;;6.10;99.90;;;;;;5061438;28;20025;-93
2021/12/11 13:55:50;;;;;;;51.72;25.48;;;6.10;99.90;;;;;;5078194;28;20021;-93
2021/12/11 13:58:16;;;;;;;51.63;25.52;;;6.10;99.90;;;;;;5074511;28;20021;-95
2021/12/11 14:01:00;;;;;;;59.55;27.05;;;6.20;99.90;;;;;;5078404;28;20109;-92
2021/12/11 14:03:28;;;;;;;49.97;25.65;;;6.20;99.90;;;;;;5064341;28;20013;-94
2021/12/11 14:06:00;;;;;;;52.85;26.27;;;6.20;99.90;;;;;;5061286;28;20115;-93
2021/12/11 14:08:27;;;;;;;53.50;26.17;;;6.30;99.90;;;;;;5075916;28;20021;-93
2021/12/11 14:10:55;;;;;;;52.67;25.02;;;6.30;99.90;;;;;;5074177;28;20028;-95
2021/12/11 14:13:21;;;;;;;46.88;25.15;;;6.30;99.90;;;;;;5075323;28;20486;-94
2021/12/11 14:15:49;;;;;;;51.35;25.05;;;6.30;99.90;;;;;;5076139;28;20025;-93
2021/12/11 14:18:16;;;;;;;60.22;31.05;;;6.30;99.90;;;;;;5082759;28;20087;-94
2021/12/11 14:20:43;;;;;;;56.38;26.67;;;6.30;99.90;;;;;;5075615;28;20120;-94
2021/12/11 14:23:13;;;;;;;56.65;27.73;;;6.40;99.90;;;;;;5075155;28;20072;-95
2021/12/11 14:25:40;;;;;;;50.03;25.45;;;6.40;99.90;;;;;;5052679;28;20017;-93
2021/12/11 14:28:14;;;;;;;49.22;24.90;;;6.40;99.90;;;;;;5060939;28;20033;-93
2021/12/11 14:30:43;;;;;;;49.90;25.52;;;6.50;99.90;;;;;;5047831;28;20032;-94
2021/12/11 14:33:08;;;;;;;46.17;24.50;;;6.50;99.90;;;;;;5061230;28;20043;-95
2021/12/11 14:35:37;;;;;;;51.53;26.73;;;6.50;99.90;;;;;;5060351;28;20480;-94
2021/12/11 14:38:06;;;;;;;56.17;28.58;;;6.40;99.90;;;;;;5061905;28;20049;-93
2021/12/11 14:40:34;;;;;;;50.75;26.90;;;6.40;99.90;;;;;;5060557;28;20025;-92
2021/12/11 14:43:00;;;;;;;54.35;26.70;;;6.40;99.90;;;;;;5063820;28;20025;-95
2021/12/11 14:45:29;;;;;;;53.83;26.17;;;6.50;99.90;;;;;;5059591;28;20025;-95
2021/12/11 14:47:56;;;;;;;54.95;27.20;;;6.40;99.90;;;;;;5060509;28;20029;-92
2021/12/11 14:50:29;;;;;;;54.53;28.35;;;6.40;99.90;;;;;;5060638;28;20033;-94
2021/12/11 14:52:57;;;;;;;62.00;31.58;;;6.40;99.90;;;;;;5061471;28;20029;-94
2021/12/11 14:55:28;;;;;;;51.67;27.65;;;6.40;99.90;;;;;;5059849;28;20074;-94
2021/12/11 14:57:54;;;;;;;58.20;29.77;;;6.50;99.90;;;;;;5060930;28;20051;-94
2021/12/11 15:00:23;;;;;;;59.85;29.88;;;6.60;99.90;;;;;;5060040;28;20029;-94
2021/12/11 15:02:50;;;;;;;49.70;27.67;;;6.60;99.90;;;;;;5042652;28;20036;-94
2021/12/11 15:05:23;;;;;;;59.25;30.50;;;6.60;99.90;;;;;;5058183;28;20025;-95
2021/12/11 15:07:50;;;;;;;71.85;38.15;;;6.60;99.90;;;;;;5059016;28;20395;-95
2021/12/11 15:10:28;;;;;;;66.70;36.75;;;6.50;99.90;;;;;;5061549;28;20032;-95
2021/12/11 15:12:54;;;;;;;79.97;41.60;;;6.60;99.90;;;;;;5066544;28;20025;-94
2021/12/11 15:15:21;;;;;;;72.53;40.63;;;6.60;99.90;;;;;;5065005;28;20053;-93
2021/12/11 15:17:47;;;;;;;63.47;32.92;;;6.60;99.90;;;;;;5048007;28;20033;-94
2021/12/11 15:20:28;;;;;;;62.80;29.15;;;6.60;99.90;;;;;;5063510;28;20032;-95
2021/12/11 15:22:54;;;;;;;68.45;33.60;;;6.60;99.90;;;;;;5061495;28;20017;-94
2021/12/11 15:25:21;;;;;;;61.63;30.63;;;6.60;99.90;;;;;;5062230;28;20028;-94
2021/12/11 15:27:47;;;;;;;57.78;29.20;;;6.50;99.90;;;;;;5059973;28;20021;-93
2021/12/11 15:30:18;;;;;;;58.47;30.45;;;6.60;99.90;;;;;;5062118;28;20025;-95
2021/12/11 15:32:44;;;;;;;54.90;29.10;;;6.60;99.90;;;;;;5060125;28;20024;-95
2021/12/11 15:35:15;;;;;;;55.90;30.48;;;6.70;99.90;;;;;;5060071;28;20029;-94
2021/12/11 15:37:42;;;;;;;59.53;29.83;;;6.70;99.90;;;;;;5056970;28;20025;-95
2021/12/11 15:40:18;;;;;;;70.93;34.05;;;6.80;99.90;;;;;;5057903;28;20041;-93
2021/12/11 15:42:46;;;;;;;61.15;30.33;;;6.70;99.90;;;;;;5058291;28;20017;-95
2021/12/11 15:45:13;;;;;;;60.85;31.70;;;6.80;99.90;;;;;;5058759;28;20029;-94
2021/12/11 15:47:39;;;;;;;57.30;30.33;;;6.80;99.90;;;;;;5060908;28;20041;-95
2021/12/11 15:50:08;;;;;;;68.90;35.78;;;6.90;99.90;;;;;;5061283;28;20128;-95
2021/12/11 15:52:35;;;;;;;74.35;34.03;;;6.80;99.90;;;;;;5065296;28;20025;-95
2021/12/11 15:55:02;;;;;;;67.28;33.85;;;6.90;99.90;;;;;;5045538;28;20029;-94
2021/12/11 15:57:28;;;;;;;61.80;33.22;;;6.90;99.90;;;;;;5069132;28;20024;-96
2021/12/11 15:59:54;;;;;;;62.15;33.63;;;7.00;99.90;;;;;;5052374;28;20029;-95
2021/12/11 16:02:27;;;;;;;62.58;30.92;;;7.00;99.90;;;;;;5073005;28;20021;-95
2021/12/11 16:04:55;;;;;;;68.20;34.28;;;7.00;99.90;;;;;;5037155;28;20033;-96
2021/12/11 16:07:23;;;;;;;65.28;32.55;;;7.10;99.90;;;;;;5068539;28;20033;-96
2021/12/11 16:09:50;;;;;;;58.92;32.75;;;7.10;99.90;;;;;;5065039;28;20033;-95
2021/12/11 16:15:52;;;;;;;60.15;31.63;;;7.20;99.90;;;;;;5058096;28;20127;-95
2021/12/11 16:18:21;;;;;;;58.85;32.08;;;7.10;99.90;;;;;;5072458;28;20025;-96
2021/12/11 16:21:01;;;;;;;59.80;31.30;;;7.20;99.90;;;;;;5057367;28;20085;-95
2021/12/11 16:23:40;;;;;;;59.35;30.67;;;7.20;99.90;;;;;;5055435;28;20048;-96
2021/12/11 16:26:06;;;;;;;58.00;31.17;;;7.20;99.90;;;;;;5067885;28;20024;-95
2021/12/11 16:28:31;;;;;;;58.58;31.00;;;7.30;99.90;;;;;;5052941;28;20029;-96
2021/12/11 16:30:59;;;;;;;58.67;32.83;;;7.30;99.90;;;;;;5049807;28;20036;-96
2021/12/11 16:33:25;;;;;;;62.65;31.25;;;7.30;99.90;;;;;;5068859;28;20021;-94
2021/12/11 16:35:52;;;;;;;60.25;31.90;;;7.30;99.90;;;;;;5072654;28;20085;-95
2021/12/11 16:38:53;;;;;;;63.03;32.97;;;7.30;99.90;;;;;;5073426;28;20044;-96
2021/12/11 16:41:19;;;;;;;62.15;32.85;;;7.30;99.90;;;;;;5073725;28;20013;-95
2021/12/11 16:43:49;;;;;;;67.55;32.17;;;7.30;99.90;;;;;;5074456;28;20051;-95
2021/12/11 16:46:36;;;;;;;56.05;30.90;;;7.30;99.90;;;;;;5074040;28;20017;-95
2021/12/11 16:49:06;;;;;;;60.95;33.15;;;7.30;99.90;;;;;;5072738;28;20033;-95
2021/12/11 16:51:34;;;;;;;67.00;34.47;;;7.30;99.90;;;;;;5069648;28;20029;-95
2021/12/11 16:54:04;;;;;;;61.55;32.85;;;7.30;99.90;;;;;;5070540;28;20101;-95
2021/12/11 16:56:40;;;;;;;69.28;31.65;;;7.30;99.90;;;;;;5069701;28;20029;-95
2021/12/11 16:59:09;;;;;;;62.15;31.58;;;7.30;99.90;;;;;;5054619;28;20025;-96
2021/12/11 17:01:39;;;;;;;63.97;31.55;;;7.30;99.90;;;;;;5074556;28;20005;-95
2021/12/11 17:04:05;;;;;;;65.35;31.70;;;7.30;99.90;;;;;;5071574;28;20033;-95
2021/12/11 17:06:36;;;;;;;62.13;30.17;;;7.30;99.90;;;;;;5067915;28;20160;-96
2021/12/11 17:09:06;;;;;;;63.83;32.38;;;7.30;99.90;;;;;;5067201;28;20025;-96
2021/12/11 17:11:32;;;;;;;73.38;33.28;;;7.30;99.90;;;;;;5068346;28;20092;-95
2021/12/11 17:13:58;;;;;;;65.80;32.67;;;7.30;99.90;;;;;;5049672;28;20029;-95
2021/12/11 17:16:28;;;;;;;73.28;32.72;;;7.30;99.90;;;;;;5066839;28;20099;-95
2021/12/11 17:18:54;;;;;;;67.95;32.75;;;7.30;99.90;;;;;;5067970;28;20021;-94
2021/12/11 17:21:23;;;;;;;80.43;35.25;;;7.30;99.90;;;;;;5068797;28;20387;-95
2021/12/11 17:23:52;;;;;;;81.90;35.78;;;7.30;99.90;;;;;;5066751;28;20048;-96
2021/12/11 17:26:19;;;;;;;68.22;35.33;;;7.30;99.90;;;;;;5048644;28;20190;-96
2021/12/11 17:28:49;;;;;;;79.05;36.15;;;7.40;99.90;;;;;;5041782;28;20372;-93
2021/12/11 17:31:16;;;;;;;81.25;37.25;;;7.40;99.90;;;;;;5054662;28;20025;-93
2021/12/11 17:33:44;;;;;;;79.60;37.40;;;7.40;99.90;;;;;;5055636;28;20029;-93
2021/12/11 17:36:11;;;;;;;71.22;34.65;;;7.40;99.90;;;;;;5054842;28;20025;-93
2021/12/11 17:38:38;;;;;;;82.90;38.50;;;7.40;99.90;;;;;;5055168;28;20025;-93
2021/12/11 17:41:05;;;;;;;83.15;39.63;;;7.50;99.90;;;;;;5055318;28;20361;-90
2021/12/11 17:43:32;;;;;;;90.15;39.78;;;7.50;99.90;;;;;;5056886;28;20025;-93
2021/12/11 17:45:58;;;;;;;82.88;41.00;;;7.40;99.90;;;;;;5056945;28;20029;-93
2021/12/11 17:48:24;;;;;;;84.75;37.50;;;7.40;99.90;;;;;;5055769;28;20028;-92
2021/12/11 17:50:54;;;;;;;88.65;37.95;;;7.40;99.90;;;;;;5056390;28;20529;-93
2021/12/11 17:53:20;;;;;;;84.38;37.53;;;7.40;99.90;;;;;;5055096;28;20033;-91
2021/12/11 17:55:49;;;;;;;84.70;38.35;;;7.50;99.90;;;;;;5055350;28;20029;-92
2021/12/11 17:58:23;;;;;;;81.60;39.33;;;7.50;99.90;;;;;;5055386;28;20030;-93
2021/12/11 18:00:57;;;;;;;83.88;37.75;;;7.50;99.90;;;;;;5057191;28;20025;-93
2021/12/11 18:03:23;;;;;;;82.53;36.65;;;7.40;99.90;;;;;;5059512;28;20017;-93
2021/12/11 18:05:52;;;;;;;78.65;36.53;;;7.50;99.90;;;;;;5059280;28;20024;-93
2021/12/11 18:08:23;;;;;;;88.80;40.13;;;7.50;99.90;;;;;;5059284;28;20116;-92
2021/12/11 18:11:03;;;;;;;85.10;39.22;;;7.50;99.90;;;;;;5059076;28;20021;-92
2021/12/11 18:13:38;;;;;;;82.57;39.35;;;7.50;99.90;;;;;;5059820;28;20033;-93
2021/12/11 18:16:21;;;;;;;86.65;38.22;;;7.50;99.90;;;;;;5058534;28;20045;-93
2021/12/11 18:18:57;;;;;;;89.35;39.38;;;7.50;99.90;;;;;;5059196;28;20017;-92
